sensor_id;sensor_type;location;lat;lon;timestamp;temperature;humidity
65864;SHT30;52639;51.180;20.460;2024-03-29T00:03:10;7.38;79.25
65864;SHT30;52639;51.180;20.460;2024-03-29T00:07:12;7.32;79.21
65864;SHT30;52639;51.180;20.460;2024-03-29T00:11:14;7.23;78.73
65864;SHT30;52639;51.180;20.460;2024-03-29T00:15:16;7.16;79.04
65864;SHT30;52639;51.180;20.460;2024-03-29T00:19:16;7.12;79.06
65864;SHT30;52639;51.180;20.460;2024-03-29T00:23:19;7.08;81.42
65864;SHT30;52639;51.180;20.460;2024-03-29T00:27:21;7.00;80.36
65864;SHT30;52639;51.180;20.460;2024-03-29T00:31:22;6.97;79.25
65864;SHT30;52639;51.180;20.460;2024-03-29T00:35:23;6.90;81.99
65864;SHT30;52639;51.180;20.460;2024-03-29T00:39:24;6.81;82.70
65864;SHT30;52639;51.180;20.460;2024-03-29T00:43:27;6.76;81.02
65864;SHT30;52639;51.180;20.460;2024-03-29T00:47:28;6.76;80.55
65864;SHT30;52639;51.180;20.460;2024-03-29T00:51:29;6.74;80.59
65864;SHT30;52639;51.180;20.460;2024-03-29T00:55:30;6.71;81.68
65864;SHT30;52639;51.180;20.460;2024-03-29T00:59:33;6.70;82.09
65864;SHT30;52639;51.180;20.460;2024-03-29T01:03:34;6.67;82.21
65864;SHT30;52639;51.180;20.460;2024-03-29T01:07:36;6.66;83.43
65864;SHT30;52639;51.180;20.460;2024-03-29T01:11:38;6.60;82.30
65864;SHT30;52639;51.180;20.460;2024-03-29T01:15:40;6.54;81.10
65864;SHT30;52639;51.180;20.460;2024-03-29T01:19:41;6.51;79.63
65864;SHT30;52639;51.180;20.460;2024-03-29T01:23:42;6.47;80.81
65864;SHT30;52639;51.180;20.460;2024-03-29T01:27:43;6.41;81.10
65864;SHT30;52639;51.180;20.460;2024-03-29T01:31:46;6.40;80.99
65864;SHT30;52639;51.180;20.460;2024-03-29T01:35:47;6.41;80.41
65864;SHT30;52639;51.180;20.460;2024-03-29T01:39:48;6.36;80.32
65864;SHT30;52639;51.180;20.460;2024-03-29T01:43:50;6.30;80.34
65864;SHT30;52639;51.180;20.460;2024-03-29T01:47:53;6.30;80.14
65864;SHT30;52639;51.180;20.460;2024-03-29T01:51:55;6.26;80.28
65864;SHT30;52639;51.180;20.460;2024-03-29T01:55:57;6.26;82.44
65864;SHT30;52639;51.180;20.460;2024-03-29T02:00:00;6.22;81.35
65864;SHT30;52639;51.180;20.460;2024-03-29T02:04:07;6.24;80.65
65864;SHT30;52639;51.180;20.460;2024-03-29T02:08:10;6.26;80.71
65864;SHT30;52639;51.180;20.460;2024-03-29T02:12:12;6.20;80.75
65864;SHT30;52639;51.180;20.460;2024-03-29T02:16:14;6.10;82.15
65864;SHT30;52639;51.180;20.460;2024-03-29T02:20:18;6.09;81.54
65864;SHT30;52639;51.180;20.460;2024-03-29T02:24:21;6.05;81.59
65864;SHT30;52639;51.180;20.460;2024-03-29T02:28:24;6.05;81.51
65864;SHT30;52639;51.180;20.460;2024-03-29T02:32:26;6.02;81.65
65864;SHT30;52639;51.180;20.460;2024-03-29T02:36:28;6.03;83.46
65864;SHT30;52639;51.180;20.460;2024-03-29T02:40:32;5.95;86.16
65864;SHT30;52639;51.180;20.460;2024-03-29T02:44:34;5.83;83.19
65864;SHT30;52639;51.180;20.460;2024-03-29T02:48:35;5.72;86.21
65864;SHT30;52639;51.180;20.460;2024-03-29T02:52:37;5.56;85.29
65864;SHT30;52639;51.180;20.460;2024-03-29T02:56:41;5.49;83.50
65864;SHT30;52639;51.180;20.460;2024-03-29T03:00:43;5.37;83.36
65864;SHT30;52639;51.180;20.460;2024-03-29T03:04:45;5.20;85.42
65864;SHT30;52639;51.180;20.460;2024-03-29T03:08:50;5.13;83.38
65864;SHT30;52639;51.180;20.460;2024-03-29T03:13:10;4.95;82.65
65864;SHT30;52639;51.180;20.460;2024-03-29T03:17:12;4.94;82.65
65864;SHT30;52639;51.180;20.460;2024-03-29T03:21:15;4.85;82.47
65864;SHT30;52639;51.180;20.460;2024-03-29T03:25:17;4.73;83.00
65864;SHT30;52639;51.180;20.460;2024-03-29T03:29:20;4.70;82.57
65864;SHT30;52639;51.180;20.460;2024-03-29T03:33:22;4.67;82.96
65864;SHT30;52639;51.180;20.460;2024-03-29T03:37:24;4.64;83.80
65864;SHT30;52639;51.180;20.460;2024-03-29T03:41:26;4.42;83.20
65864;SHT30;52639;51.180;20.460;2024-03-29T03:45:33;4.26;84.97
65864;SHT30;52639;51.180;20.460;2024-03-29T03:49:35;4.29;83.11
65864;SHT30;52639;51.180;20.460;2024-03-29T03:53:37;4.25;84.85
65864;SHT30;52639;51.180;20.460;2024-03-29T03:57:39;4.18;84.90
65864;SHT30;52639;51.180;20.460;2024-03-29T04:01:42;4.25;86.42
65864;SHT30;52639;51.180;20.460;2024-03-29T04:05:44;4.32;86.12
65864;SHT30;52639;51.180;20.460;2024-03-29T04:09:50;4.35;83.72
65864;SHT30;52639;51.180;20.460;2024-03-29T04:13:52;4.30;83.18
65864;SHT30;52639;51.180;20.460;2024-03-29T04:17:58;4.29;83.86
65864;SHT30;52639;51.180;20.460;2024-03-29T04:22:00;4.19;83.01
65864;SHT30;52639;51.180;20.460;2024-03-29T04:26:02;4.15;85.52
65864;SHT30;52639;51.180;20.460;2024-03-29T04:30:09;4.18;83.39
65864;SHT30;52639;51.180;20.460;2024-03-29T04:34:12;4.15;82.49
65864;SHT30;52639;51.180;20.460;2024-03-29T04:38:14;4.09;82.22
65864;SHT30;52639;51.180;20.460;2024-03-29T04:42:16;4.12;84.19
65864;SHT30;52639;51.180;20.460;2024-03-29T04:46:18;4.16;82.48
65864;SHT30;52639;51.180;20.460;2024-03-29T04:50:21;4.16;82.32
65864;SHT30;52639;51.180;20.460;2024-03-29T04:54:23;4.16;82.35
65864;SHT30;52639;51.180;20.460;2024-03-29T05:02:30;4.40;82.69
65864;SHT30;52639;51.180;20.460;2024-03-29T05:06:34;4.50;82.25
65864;SHT30;52639;51.180;20.460;2024-03-29T05:10:36;4.74;83.43
65864;SHT30;52639;51.180;20.460;2024-03-29T05:14:38;4.85;82.37
65864;SHT30;52639;51.180;20.460;2024-03-29T05:18:40;5.15;81.82
65864;SHT30;52639;51.180;20.460;2024-03-29T05:22:43;5.56;83.23
65864;SHT30;52639;51.180;20.460;2024-03-29T05:26:45;5.93;81.46
65864;SHT30;52639;51.180;20.460;2024-03-29T05:30:47;6.47;81.05
65864;SHT30;52639;51.180;20.460;2024-03-29T05:34:49;7.41;79.70
65864;SHT30;52639;51.180;20.460;2024-03-29T05:38:52;11.88;77.81
65864;SHT30;52639;51.180;20.460;2024-03-29T05:42:55;15.53;64.48
65864;SHT30;52639;51.180;20.460;2024-03-29T05:46:57;16.84;60.59
65864;SHT30;52639;51.180;20.460;2024-03-29T05:50:59;17.51;59.46
65864;SHT30;52639;51.180;20.460;2024-03-29T05:55:05;18.12;59.88
65864;SHT30;52639;51.180;20.460;2024-03-29T05:59:10;18.12;62.24
65864;SHT30;52639;51.180;20.460;2024-03-29T06:03:12;18.70;60.51
65864;SHT30;52639;51.180;20.460;2024-03-29T06:07:15;18.53;62.67
65864;SHT30;52639;51.180;20.460;2024-03-29T06:11:17;19.23;56.03
65864;SHT30;52639;51.180;20.460;2024-03-29T06:15:19;19.07;62.29
65864;SHT30;52639;51.180;20.460;2024-03-29T06:19:39;18.57;62.71
65864;SHT30;52639;51.180;20.460;2024-03-29T06:23:42;19.14;62.66
65864;SHT30;52639;51.180;20.460;2024-03-29T06:27:46;19.95;61.68
65864;SHT30;52639;51.180;20.460;2024-03-29T06:31:49;19.27;62.96
65864;SHT30;52639;51.180;20.460;2024-03-29T06:35:53;19.14;63.10
65864;SHT30;52639;51.180;20.460;2024-03-29T06:39:56;18.99;64.22
65864;SHT30;52639;51.180;20.460;2024-03-29T06:43:59;19.28;62.22
65864;SHT30;52639;51.180;20.460;2024-03-29T06:48:02;19.24;63.15
65864;SHT30;52639;51.180;20.460;2024-03-29T06:52:04;18.87;63.61
65864;SHT30;52639;51.180;20.460;2024-03-29T06:56:06;18.66;65.58
65864;SHT30;52639;51.180;20.460;2024-03-29T07:00:11;19.00;63.83
65864;SHT30;52639;51.180;20.460;2024-03-29T07:04:13;19.15;63.80
65864;SHT30;52639;51.180;20.460;2024-03-29T07:08:16;18.79;64.96
65864;SHT30;52639;51.180;20.460;2024-03-29T07:12:19;18.50;64.95
65864;SHT30;52639;51.180;20.460;2024-03-29T07:16:22;18.67;64.78
65864;SHT30;52639;51.180;20.460;2024-03-29T07:20:25;18.40;64.69
65864;SHT30;52639;51.180;20.460;2024-03-29T07:24:27;18.39;64.65
65864;SHT30;52639;51.180;20.460;2024-03-29T07:28:29;18.06;63.92
65864;SHT30;52639;51.180;20.460;2024-03-29T07:32:33;18.69;62.93
65864;SHT30;52639;51.180;20.460;2024-03-29T07:36:36;18.84;61.11
65864;SHT30;52639;51.180;20.460;2024-03-29T07:40:38;19.34;62.24
65864;SHT30;52639;51.180;20.460;2024-03-29T07:44:40;19.13;62.96
65864;SHT30;52639;51.180;20.460;2024-03-29T07:48:43;18.91;63.20
65864;SHT30;52639;51.180;20.460;2024-03-29T07:52:45;18.64;63.69
65864;SHT30;52639;51.180;20.460;2024-03-29T07:56:47;19.06;61.56
65864;SHT30;52639;51.180;20.460;2024-03-29T08:00:49;19.45;61.01
65864;SHT30;52639;51.180;20.460;2024-03-29T08:04:53;19.90;60.40
65864;SHT30;52639;51.180;20.460;2024-03-29T08:08:55;19.85;60.90
65864;SHT30;52639;51.180;20.460;2024-03-29T08:12:57;19.78;60.34
65864;SHT30;52639;51.180;20.460;2024-03-29T08:17:01;19.47;59.86
65864;SHT30;52639;51.180;20.460;2024-03-29T08:21:07;19.64;60.29
65864;SHT30;52639;51.180;20.460;2024-03-29T08:25:12;20.29;59.08
65864;SHT30;52639;51.180;20.460;2024-03-29T08:29:16;20.25;58.65
65864;SHT30;52639;51.180;20.460;2024-03-29T08:33:18;20.50;59.27
65864;SHT30;52639;51.180;20.460;2024-03-29T08:37:21;20.20;58.67
65864;SHT30;52639;51.180;20.460;2024-03-29T08:41:23;21.17;55.58
65864;SHT30;52639;51.180;20.460;2024-03-29T08:45:25;20.91;55.56
65864;SHT30;52639;51.180;20.460;2024-03-29T08:49:27;21.55;54.53
65864;SHT30;52639;51.180;20.460;2024-03-29T08:53:31;21.38;53.33
65864;SHT30;52639;51.180;20.460;2024-03-29T08:57:33;21.11;53.20
65864;SHT30;52639;51.180;20.460;2024-03-29T09:01:36;21.42;52.91
65864;SHT30;52639;51.180;20.460;2024-03-29T09:05:38;22.20;52.21
65864;SHT30;52639;51.180;20.460;2024-03-29T09:09:42;21.28;52.49
65864;SHT30;52639;51.180;20.460;2024-03-29T09:13:44;22.08;52.08
65864;SHT30;52639;51.180;20.460;2024-03-29T09:17:46;21.63;52.08
65864;SHT30;52639;51.180;20.460;2024-03-29T09:21:48;21.85;52.14
65864;SHT30;52639;51.180;20.460;2024-03-29T09:25:51;21.21;52.28
65864;SHT30;52639;51.180;20.460;2024-03-29T09:29:54;21.42;52.80
65864;SHT30;52639;51.180;20.460;2024-03-29T09:33:57;20.34;53.44
65864;SHT30;52639;51.180;20.460;2024-03-29T09:37:59;19.75;51.81
65864;SHT30;52639;51.180;20.460;2024-03-29T09:42:03;19.95;50.78
65864;SHT30;52639;51.180;20.460;2024-03-29T09:46:05;20.98;49.17
65864;SHT30;52639;51.180;20.460;2024-03-29T09:50:08;21.42;49.12
65864;SHT30;52639;51.180;20.460;2024-03-29T09:54:10;20.98;49.85
65864;SHT30;52639;51.180;20.460;2024-03-29T09:58:15;20.80;49.62
65864;SHT30;52639;51.180;20.460;2024-03-29T10:02:19;20.95;49.47
65864;SHT30;52639;51.180;20.460;2024-03-29T10:06:25;21.23;49.05
65864;SHT30;52639;51.180;20.460;2024-03-29T10:10:28;20.79;49.34
65864;SHT30;52639;51.180;20.460;2024-03-29T10:14:31;20.79;49.61
65864;SHT30;52639;51.180;20.460;2024-03-29T10:18:33;20.74;49.57
65864;SHT30;52639;51.180;20.460;2024-03-29T10:22:40;20.97;48.92
65864;SHT30;52639;51.180;20.460;2024-03-29T10:26:42;20.15;49.01
65864;SHT30;52639;51.180;20.460;2024-03-29T10:30:46;20.70;47.58
65864;SHT30;52639;51.180;20.460;2024-03-29T10:34:48;18.04;50.70
65864;SHT30;52639;51.180;20.460;2024-03-29T10:38:50;17.38;51.83
65864;SHT30;52639;51.180;20.460;2024-03-29T10:42:53;17.06;51.13
65864;SHT30;52639;51.180;20.460;2024-03-29T10:46:58;17.06;50.59
65864;SHT30;52639;51.180;20.460;2024-03-29T10:51:01;17.11;50.11
65864;SHT30;52639;51.180;20.460;2024-03-29T10:55:04;17.04;50.22
65864;SHT30;52639;51.180;20.460;2024-03-29T10:59:12;17.02;49.93
65864;SHT30;52639;51.180;20.460;2024-03-29T11:03:30;17.07;49.66
65864;SHT30;52639;51.180;20.460;2024-03-29T11:07:34;16.65;50.08
65864;SHT30;52639;51.180;20.460;2024-03-29T11:11:40;16.69;50.17
65864;SHT30;52639;51.180;20.460;2024-03-29T11:15:44;16.75;50.24
65864;SHT30;52639;51.180;20.460;2024-03-29T11:19:48;16.84;49.98
65864;SHT30;52639;51.180;20.460;2024-03-29T11:23:52;16.55;50.28
65864;SHT30;52639;51.180;20.460;2024-03-29T11:28:03;16.39;50.08
65864;SHT30;52639;51.180;20.460;2024-03-29T11:32:07;16.41;49.67
65864;SHT30;52639;51.180;20.460;2024-03-29T11:36:13;16.23;49.77
65864;SHT30;52639;51.180;20.460;2024-03-29T11:40:15;16.21;50.09
65864;SHT30;52639;51.180;20.460;2024-03-29T11:44:17;16.21;50.00
65864;SHT30;52639;51.180;20.460;2024-03-29T11:48:23;16.33;49.56
65864;SHT30;52639;51.180;20.460;2024-03-29T11:52:27;16.33;49.53
65864;SHT30;52639;51.180;20.460;2024-03-29T11:56:29;16.28;49.72
65864;SHT30;52639;51.180;20.460;2024-03-29T12:00:31;16.48;49.65
65864;SHT30;52639;51.180;20.460;2024-03-29T12:04:33;16.36;49.10
65864;SHT30;52639;51.180;20.460;2024-03-29T12:08:39;16.52;49.29
65864;SHT30;52639;51.180;20.460;2024-03-29T12:12:43;16.63;48.61
65864;SHT30;52639;51.180;20.460;2024-03-29T12:16:51;16.51;49.10
65864;SHT30;52639;51.180;20.460;2024-03-29T12:20:56;16.33;48.58
65864;SHT30;52639;51.180;20.460;2024-03-29T12:25:00;16.42;48.91
65864;SHT30;52639;51.180;20.460;2024-03-29T12:29:02;16.39;48.46
65864;SHT30;52639;51.180;20.460;2024-03-29T12:33:06;16.33;47.73
65864;SHT30;52639;51.180;20.460;2024-03-29T12:37:09;16.28;47.97
65864;SHT30;52639;51.180;20.460;2024-03-29T12:41:13;16.29;47.71
65864;SHT30;52639;51.180;20.460;2024-03-29T12:45:32;16.42;47.74
65864;SHT30;52639;51.180;20.460;2024-03-29T12:49:45;16.32;46.90
65864;SHT30;52639;51.180;20.460;2024-03-29T12:53:48;16.41;47.38
65864;SHT30;52639;51.180;20.460;2024-03-29T12:57:52;16.33;47.67
65864;SHT30;52639;51.180;20.460;2024-03-29T13:02:03;16.22;48.10
65864;SHT30;52639;51.180;20.460;2024-03-29T13:06:08;16.39;47.60
65864;SHT30;52639;51.180;20.460;2024-03-29T13:10:13;16.43;47.49
65864;SHT30;52639;51.180;20.460;2024-03-29T13:14:21;16.70;47.74
65864;SHT30;52639;51.180;20.460;2024-03-29T13:18:23;16.77;47.76
65864;SHT30;52639;51.180;20.460;2024-03-29T13:22:25;16.79;46.73
65864;SHT30;52639;51.180;20.460;2024-03-29T13:26:27;16.66;45.92
65864;SHT30;52639;51.180;20.460;2024-03-29T13:30:33;16.48;46.21
65864;SHT30;52639;51.180;20.460;2024-03-29T13:34:38;16.81;45.87
65864;SHT30;52639;51.180;20.460;2024-03-29T13:38:40;17.68;45.06
65864;SHT30;52639;51.180;20.460;2024-03-29T13:42:42;18.13;45.15
65864;SHT30;52639;51.180;20.460;2024-03-29T13:46:45;17.98;44.66
65864;SHT30;52639;51.180;20.460;2024-03-29T13:50:47;18.04;44.36
65864;SHT30;52639;51.180;20.460;2024-03-29T13:54:51;18.22;44.25
65864;SHT30;52639;51.180;20.460;2024-03-29T13:58:53;18.10;44.82
65864;SHT30;52639;51.180;20.460;2024-03-29T14:02:56;17.88;44.90
65864;SHT30;52639;51.180;20.460;2024-03-29T14:06:58;17.50;45.24
65864;SHT30;52639;51.180;20.460;2024-03-29T14:11:00;17.44;45.10
65864;SHT30;52639;51.180;20.460;2024-03-29T14:15:02;17.45;44.44
65864;SHT30;52639;51.180;20.460;2024-03-29T14:19:08;17.32;45.07
65864;SHT30;52639;51.180;20.460;2024-03-29T14:23:09;17.20;45.75
65864;SHT30;52639;51.180;20.460;2024-03-29T14:27:15;17.13;45.49
65864;SHT30;52639;51.180;20.460;2024-03-29T14:31:17;17.02;44.57
65864;SHT30;52639;51.180;20.460;2024-03-29T14:35:21;16.73;45.42
65864;SHT30;52639;51.180;20.460;2024-03-29T14:39:23;16.49;45.50
65864;SHT30;52639;51.180;20.460;2024-03-29T14:43:25;16.38;45.49
65864;SHT30;52639;51.180;20.460;2024-03-29T14:47:27;16.32;45.85
65864;SHT30;52639;51.180;20.460;2024-03-29T14:51:31;16.62;45.69
65864;SHT30;52639;51.180;20.460;2024-03-29T14:55:33;16.94;45.07
65864;SHT30;52639;51.180;20.460;2024-03-29T14:59:37;16.99;45.57
65864;SHT30;52639;51.180;20.460;2024-03-29T15:03:40;17.07;45.24
65864;SHT30;52639;51.180;20.460;2024-03-29T15:07:43;17.19;45.32
65864;SHT30;52639;51.180;20.460;2024-03-29T15:11:45;17.02;45.61
65864;SHT30;52639;51.180;20.460;2024-03-29T15:15:52;16.42;45.77
65864;SHT30;52639;51.180;20.460;2024-03-29T15:19:54;15.80;46.70
65864;SHT30;52639;51.180;20.460;2024-03-29T15:23:58;15.27;47.60
65864;SHT30;52639;51.180;20.460;2024-03-29T15:28:00;15.38;47.16
65864;SHT30;52639;51.180;20.460;2024-03-29T15:32:19;15.24;47.43
65864;SHT30;52639;51.180;20.460;2024-03-29T15:36:23;15.10;46.17
65864;SHT30;52639;51.180;20.460;2024-03-29T15:40:28;15.07;47.67
65864;SHT30;52639;51.180;20.460;2024-03-29T15:44:30;15.08;47.70
65864;SHT30;52639;51.180;20.460;2024-03-29T15:48:33;15.03;48.06
65864;SHT30;52639;51.180;20.460;2024-03-29T15:52:35;14.96;47.97
65864;SHT30;52639;51.180;20.460;2024-03-29T15:56:39;14.90;47.99
65864;SHT30;52639;51.180;20.460;2024-03-29T16:00:41;14.82;48.17
65864;SHT30;52639;51.180;20.460;2024-03-29T16:04:44;14.63;48.65
65864;SHT30;52639;51.180;20.460;2024-03-29T16:08:46;14.48;49.02
65864;SHT30;52639;51.180;20.460;2024-03-29T16:12:50;14.32;49.53
65864;SHT30;52639;51.180;20.460;2024-03-29T16:16:52;14.14;49.88
65864;SHT30;52639;51.180;20.460;2024-03-29T16:20:54;13.84;51.13
65864;SHT30;52639;51.180;20.460;2024-03-29T16:24:55;13.79;50.88
65864;SHT30;52639;51.180;20.460;2024-03-29T16:28:59;13.74;50.84
65864;SHT30;52639;51.180;20.460;2024-03-29T16:33:08;13.20;52.16
65864;SHT30;52639;51.180;20.460;2024-03-29T16:37:10;12.72;53.28
65864;SHT30;52639;51.180;20.460;2024-03-29T16:41:12;12.04;54.71
65864;SHT30;52639;51.180;20.460;2024-03-29T16:45:24;11.66;55.72
65864;SHT30;52639;51.180;20.460;2024-03-29T16:49:25;11.30;56.43
65864;SHT30;52639;51.180;20.460;2024-03-29T16:53:27;10.91;57.13
65864;SHT30;52639;51.180;20.460;2024-03-29T16:57:49;10.56;58.01
65864;SHT30;52639;51.180;20.460;2024-03-29T17:01:53;10.52;57.78
65864;SHT30;52639;51.180;20.460;2024-03-29T17:05:55;10.04;58.90
65864;SHT30;52639;51.180;20.460;2024-03-29T17:09:57;9.83;59.80
65864;SHT30;52639;51.180;20.460;2024-03-29T17:13:59;9.61;59.73
65864;SHT30;52639;51.180;20.460;2024-03-29T17:18:11;9.57;59.53
65864;SHT30;52639;51.180;20.460;2024-03-29T17:22:13;9.33;60.10
65864;SHT30;52639;51.180;20.460;2024-03-29T17:26:17;9.01;60.63
65864;SHT30;52639;51.180;20.460;2024-03-29T17:30:19;8.82;62.79
65864;SHT30;52639;51.180;20.460;2024-03-29T17:34:29;8.65;64.38
65864;SHT30;52639;51.180;20.460;2024-03-29T17:38:43;8.44;60.85
65864;SHT30;52639;51.180;20.460;2024-03-29T17:42:53;8.26;61.32
65864;SHT30;52639;51.180;20.460;2024-03-29T17:47:00;8.26;61.91
65864;SHT30;52639;51.180;20.460;2024-03-29T17:51:04;8.28;64.93
65864;SHT30;52639;51.180;20.460;2024-03-29T17:55:06;8.37;62.55
65864;SHT30;52639;51.180;20.460;2024-03-29T17:59:09;8.50;61.95
65864;SHT30;52639;51.180;20.460;2024-03-29T18:03:18;8.68;61.63
65864;SHT30;52639;51.180;20.460;2024-03-29T18:07:22;8.81;61.79
65864;SHT30;52639;51.180;20.460;2024-03-29T18:11:24;8.95;62.16
65864;SHT30;52639;51.180;20.460;2024-03-29T18:15:29;8.95;62.61
65864;SHT30;52639;51.180;20.460;2024-03-29T18:19:34;9.02;63.04
65864;SHT30;52639;51.180;20.460;2024-03-29T18:23:42;9.12;62.79
65864;SHT30;52639;51.180;20.460;2024-03-29T18:27:46;9.25;63.27
65864;SHT30;52639;51.180;20.460;2024-03-29T18:31:47;9.19;63.60
65864;SHT30;52639;51.180;20.460;2024-03-29T18:35:49;9.14;65.58
65864;SHT30;52639;51.180;20.460;2024-03-29T18:39:54;9.22;63.68
65864;SHT30;52639;51.180;20.460;2024-03-29T18:43:56;9.39;63.32
65864;SHT30;52639;51.180;20.460;2024-03-29T18:47:58;9.44;64.69
65864;SHT30;52639;51.180;20.460;2024-03-29T18:52:00;9.30;63.85
65864;SHT30;52639;51.180;20.460;2024-03-29T18:56:03;8.99;63.90
65864;SHT30;52639;51.180;20.460;2024-03-29T19:00:06;8.57;64.77
65864;SHT30;52639;51.180;20.460;2024-03-29T19:04:10;8.37;65.88
65864;SHT30;52639;51.180;20.460;2024-03-29T19:08:11;8.27;66.96
65864;SHT30;52639;51.180;20.460;2024-03-29T19:12:15;8.20;65.54
65864;SHT30;52639;51.180;20.460;2024-03-29T19:16:22;8.21;64.96
65864;SHT30;52639;51.180;20.460;2024-03-29T19:20:25;8.11;65.31
65864;SHT30;52639;51.180;20.460;2024-03-29T19:24:27;8.04;65.71
65864;SHT30;52639;51.180;20.460;2024-03-29T19:28:31;8.33;65.04
65864;SHT30;52639;51.180;20.460;2024-03-29T19:32:33;8.67;65.07
65864;SHT30;52639;51.180;20.460;2024-03-29T19:36:35;9.47;64.40
65864;SHT30;52639;51.180;20.460;2024-03-29T19:40:37;10.28;61.28
65864;SHT30;52639;51.180;20.460;2024-03-29T19:44:41;10.52;61.96
65864;SHT30;52639;51.180;20.460;2024-03-29T19:48:48;10.62;61.79
65864;SHT30;52639;51.180;20.460;2024-03-29T19:52:50;10.66;62.17
65864;SHT30;52639;51.180;20.460;2024-03-29T19:56:52;10.89;62.24
65864;SHT30;52639;51.180;20.460;2024-03-29T20:00:55;11.02;61.75
65864;SHT30;52639;51.180;20.460;2024-03-29T20:04:57;11.06;62.01
65864;SHT30;52639;51.180;20.460;2024-03-29T20:09:02;11.19;62.14
65864;SHT30;52639;51.180;20.460;2024-03-29T20:13:06;11.27;62.00
65864;SHT30;52639;51.180;20.460;2024-03-29T20:17:09;11.43;62.02
65864;SHT30;52639;51.180;20.460;2024-03-29T20:21:15;11.42;62.18
65864;SHT30;52639;51.180;20.460;2024-03-29T20:25:17;11.29;62.66
65864;SHT30;52639;51.180;20.460;2024-03-29T20:29:19;11.08;62.88
65864;SHT30;52639;51.180;20.460;2024-03-29T20:33:23;11.10;63.14
65864;SHT30;52639;51.180;20.460;2024-03-29T20:37:30;11.10;62.97
65864;SHT30;52639;51.180;20.460;2024-03-29T20:41:36;10.61;63.92
65864;SHT30;52639;51.180;20.460;2024-03-29T20:45:38;10.17;64.81
65864;SHT30;52639;51.180;20.460;2024-03-29T20:49:41;9.64;66.06
65864;SHT30;52639;51.180;20.460;2024-03-29T20:53:44;9.39;65.84
65864;SHT30;52639;51.180;20.460;2024-03-29T20:57:46;8.88;66.78
65864;SHT30;52639;51.180;20.460;2024-03-29T21:01:48;8.74;66.74
65864;SHT30;52639;51.180;20.460;2024-03-29T21:06:14;8.42;67.12
65864;SHT30;52639;51.180;20.460;2024-03-29T21:10:17;8.30;67.53
65864;SHT30;52639;51.180;20.460;2024-03-29T21:14:19;8.16;67.43
65864;SHT30;52639;51.180;20.460;2024-03-29T21:18:21;7.98;67.95
65864;SHT30;52639;51.180;20.460;2024-03-29T21:22:49;7.96;67.96
65864;SHT30;52639;51.180;20.460;2024-03-29T21:26:51;7.89;67.98
65864;SHT30;52639;51.180;20.460;2024-03-29T21:30:53;7.73;68.29
65864;SHT30;52639;51.180;20.460;2024-03-29T21:34:55;7.82;70.16
65864;SHT30;52639;51.180;20.460;2024-03-29T21:38:58;7.93;68.13
65864;SHT30;52639;51.180;20.460;2024-03-29T21:43:01;7.79;68.17
65864;SHT30;52639;51.180;20.460;2024-03-29T21:47:04;7.79;68.19
65864;SHT30;52639;51.180;20.460;2024-03-29T21:51:10;7.80;68.31
65864;SHT30;52639;51.180;20.460;2024-03-29T21:55:15;7.86;68.74
65864;SHT30;52639;51.180;20.460;2024-03-29T21:59:16;8.01;68.47
65864;SHT30;52639;51.180;20.460;2024-03-29T22:03:18;8.61;69.89
65864;SHT30;52639;51.180;20.460;2024-03-29T22:07:20;9.32;69.70
65864;SHT30;52639;51.180;20.460;2024-03-29T22:11:24;9.67;73.09
65864;SHT30;52639;51.180;20.460;2024-03-29T22:15:26;10.07;68.54
65864;SHT30;52639;51.180;20.460;2024-03-29T22:19:31;10.14;70.29
65864;SHT30;52639;51.180;20.460;2024-03-29T22:23:33;9.77;67.78
65864;SHT30;52639;51.180;20.460;2024-03-29T22:27:36;9.71;67.47
65864;SHT30;52639;51.180;20.460;2024-03-29T22:31:38;9.57;67.99
65864;SHT30;52639;51.180;20.460;2024-03-29T22:35:42;9.80;69.57
65864;SHT30;52639;51.180;20.460;2024-03-29T22:39:44;9.93;71.27
65864;SHT30;52639;51.180;20.460;2024-03-29T22:43:46;10.10;68.59
65864;SHT30;52639;51.180;20.460;2024-03-29T22:47:48;10.41;68.89
65864;SHT30;52639;51.180;20.460;2024-03-29T22:51:51;10.48;67.55
65864;SHT30;52639;51.180;20.460;2024-03-29T22:55:52;10.71;67.27
65864;SHT30;52639;51.180;20.460;2024-03-29T22:59:56;10.59;67.15
65864;SHT30;52639;51.180;20.460;2024-03-29T23:04:03;10.52;67.29
65864;SHT30;52639;51.180;20.460;2024-03-29T23:08:05;10.51;68.09
65864;SHT30;52639;51.180;20.460;2024-03-29T23:12:07;9.73;69.66
65864;SHT30;52639;51.180;20.460;2024-03-29T23:16:11;9.46;69.80
65864;SHT30;52639;51.180;20.460;2024-03-29T23:20:13;9.18;70.12
65864;SHT30;52639;51.180;20.460;2024-03-29T23:24:15;9.06;70.34
65864;SHT30;52639;51.180;20.460;2024-03-29T23:28:17;9.06;71.92
65864;SHT30;52639;51.180;20.460;2024-03-29T23:32:21;8.78;70.74
65864;SHT30;52639;51.180;20.460;2024-03-29T23:36:23;8.58;70.73
65864;SHT30;52639;51.180;20.460;2024-03-29T23:40:26;8.71;70.51
65864;SHT30;52639;51.180;20.460;2024-03-29T23:44:28;8.67;72.32
65864;SHT30;52639;51.180;20.460;2024-03-29T23:48:31;8.76;71.02
65864;SHT30;52639;51.180;20.460;2024-03-29T23:52:34;9.12;72.05
65864;SHT30;52639;51.180;20.460;2024-03-29T23:56:36;9.60;75.92
